Time;durP1;ratioP1;P1;durP2;ratioP2;P2;SDS_P1;SDS_P2;PMS_P1;PMS_P2;Temp;Humidity;BMP_temperature;BMP_pressure;BME280_temperature;BME280_humidity;BME280_pressure;Samples;Min_cycle;Max_cycle;Signal;HPM_P1;HPM_P2
2022/12/07 00:01:17;;;;;;;25.00;6.70;;;;;;;-4.86;100.00;101978.44;1560758;91;21055;-80
2022/12/07 00:03:46;;;;;;;25.32;6.35;;;;;;;-4.84;100.00;101975.21;1571708;91;21821;-80
2022/12/07 00:06:14;;;;;;;19.80;5.78;;;;;;;-4.85;100.00;101976.18;1573804;89;21634;-80
2022/12/07 00:08:40;;;;;;;25.72;6.97;;;;;;;-4.77;100.00;101984.25;1572225;91;21978;-80
2022/12/07 00:11:10;;;;;;;23.83;5.87;;;;;;;-4.77;100.00;101980.31;1576435;90;21037;-80
2022/12/07 00:13:37;;;;;;;25.72;5.85;;;;;;;-4.72;100.00;101979.95;1565669;90;22300;-80
2022/12/07 00:16:08;;;;;;;27.42;6.03;;;;;;;-4.72;100.00;101974.20;1618462;88;21085;-80
2022/12/07 00:18:34;;;;;;;15.32;4.03;;;;;;;-4.70;100.00;101978.87;1548424;92;21157;-80
2022/12/07 00:21:05;;;;;;;16.87;3.62;;;;;;;-4.64;100.00;101975.73;1548145;92;21169;-80
2022/12/07 00:23:31;;;;;;;10.93;3.20;;;;;;;-4.57;100.00;101966.84;1572765;89;21110;-80
2022/12/07 00:26:06;;;;;;;20.80;3.80;;;;;;;-4.52;100.00;101977.00;1580477;89;21097;-79
2022/12/07 00:28:33;;;;;;;21.33;4.90;;;;;;;-4.49;100.00;101960.48;1580053;89;21079;-80
2022/12/07 00:31:07;;;;;;;15.78;4.62;;;;;;;-4.42;100.00;101958.16;1582491;90;21084;-81
2022/12/07 00:33:35;;;;;;;15.32;4.42;;;;;;;-4.48;100.00;101952.09;1576566;91;22171;-80
2022/12/07 00:36:02;;;;;;;13.30;3.60;;;;;;;-4.40;100.00;101958.87;1575604;90;21144;-80
2022/12/07 00:38:31;;;;;;;14.13;3.80;;;;;;;-4.39;100.00;101967.11;1579187;90;21122;-80
2022/12/07 00:41:08;;;;;;;14.07;3.70;;;;;;;-4.35;100.00;101971.17;1578954;89;21070;-80
2022/12/07 00:43:34;;;;;;;15.20;3.10;;;;;;;-4.33;100.00;101971.86;1527421;93;21856;-80
2022/12/07 00:45:59;;;;;;;15.32;3.17;;;;;;;-4.29;100.00;101965.86;1526478;93;21185;-80
2022/12/07 00:48:26;;;;;;;11.63;2.77;;;;;;;-4.28;100.00;101959.65;1525885;93;20991;-80
2022/12/07 00:50:52;;;;;;;10.63;3.02;;;;;;;-4.27;100.00;101962.13;1526261;93;21091;-78
2022/12/07 00:53:19;;;;;;;10.45;3.02;;;;;;;-4.26;100.00;101959.88;1524881;93;21192;-77
2022/12/07 00:55:46;;;;;;;7.75;2.75;;;;;;;-4.25;100.00;101962.02;1527605;94;21186;-78
2022/12/07 00:58:12;;;;;;;12.63;3.15;;;;;;;-4.20;100.00;101949.31;1527439;93;21131;-78
2022/12/07 01:00:41;;;;;;;18.98;2.77;;;;;;;-4.24;100.00;101957.09;1524729;93;21130;-77
2022/12/07 01:03:10;;;;;;;14.63;3.20;;;;;;;-4.25;100.00;101948.37;1523426;93;21122;-78
2022/12/07 01:05:36;;;;;;;14.40;3.22;;;;;;;-4.20;100.00;101931.72;1527504;93;21663;-77
2022/12/07 01:08:04;;;;;;;13.68;3.02;;;;;;;-4.21;100.00;101954.20;1523907;93;20972;-80
2022/12/07 01:10:31;;;;;;;15.25;3.75;;;;;;;-4.17;100.00;101943.80;1527669;93;21272;-80
2022/12/07 01:12:58;;;;;;;16.37;3.60;;;;;;;-4.17;100.00;101939.84;1521992;93;21125;-80
2022/12/07 01:15:25;;;;;;;14.55;3.08;;;;;;;-4.14;100.00;101933.00;1551808;90;21119;-79
2022/12/07 01:17:51;;;;;;;13.35;3.40;;;;;;;-4.15;100.00;101930.86;1583985;90;21565;-80
2022/12/07 01:20:18;;;;;;;13.98;3.33;;;;;;;-4.14;100.00;101925.94;1605784;87;21050;-80
2022/12/07 01:22:44;;;;;;;11.10;3.08;;;;;;;-4.13;100.00;101923.64;1633369;87;21238;-80
2022/12/07 01:25:12;;;;;;;18.52;3.52;;;;;;;-4.13;100.00;101917.55;1632215;87;21602;-77
2022/12/07 01:27:38;;;;;;;12.70;4.12;;;;;;;-4.10;100.00;101922.55;1632251;87;21534;-78
2022/12/07 01:30:07;;;;;;;14.18;3.45;;;;;;;-4.13;100.00;101904.39;1653947;84;21664;-78
2022/12/07 01:32:34;;;;;;;17.80;3.65;;;;;;;-4.07;100.00;101903.03;1671657;84;21028;-78
2022/12/07 01:35:00;;;;;;;14.07;3.33;;;;;;;-4.14;100.00;101912.77;1681718;84;21106;-77
2022/12/07 01:37:26;;;;;;;24.60;3.80;;;;;;;-4.12;100.00;101896.38;1676922;84;21061;-78
2022/12/07 01:39:52;;;;;;;15.58;3.17;;;;;;;-4.15;100.00;101900.59;1716652;80;20979;-78
2022/12/07 01:42:19;;;;;;;16.57;3.77;;;;;;;-4.20;100.00;101877.77;1777271;78;21083;-80
2022/12/07 01:45:19;;;;;;;16.82;3.08;;;;;;;-4.17;100.00;101897.25;1769816;80;21051;-79
2022/12/07 01:47:53;;;;;;;9.60;3.27;;;;;;;-4.16;100.00;101880.97;1781110;79;21046;-80
2022/12/07 01:50:22;;;;;;;18.30;4.17;;;;;;;-4.16;100.00;101880.97;1773451;80;20988;-80
2022/12/07 01:52:51;;;;;;;14.47;3.47;;;;;;;-4.18;100.00;101881.57;1768862;80;21075;-80
2022/12/07 01:55:18;;;;;;;15.78;4.37;;;;;;;-4.19;100.00;101885.18;1769480;80;21028;-80
2022/12/07 01:57:48;;;;;;;12.78;3.62;;;;;;;-4.17;100.00;101891.16;1769119;80;21027;-78
2022/12/07 02:00:16;;;;;;;12.78;3.50;;;;;;;-4.23;100.00;101887.73;1766943;80;21777;-77
2022/12/07 02:02:52;;;;;;;18.20;3.67;;;;;;;-4.16;100.00;101882.28;1772838;80;21000;-78
2022/12/07 02:05:19;;;;;;;15.48;3.87;;;;;;;-4.23;100.00;101885.10;1769756;80;21008;-79
2022/12/07 02:07:48;;;;;;;15.00;3.58;;;;;;;-4.24;100.00;101892.14;1769821;80;21066;-80
2022/12/07 02:10:22;;;;;;;16.85;3.30;;;;;;;-4.21;100.00;101893.19;1767515;80;20999;-80
2022/12/07 02:12:56;;;;;;;13.78;3.10;;;;;;;-4.22;100.00;101879.69;1769700;81;21140;-80
2022/12/07 02:15:27;;;;;;;13.90;3.58;;;;;;;-4.22;100.00;101889.39;1692158;82;21015;-80
2022/12/07 02:18:04;;;;;;;17.70;3.72;;;;;;;-4.14;100.00;101902.25;1696122;84;21106;-80
2022/12/07 02:20:45;;;;;;;14.95;4.10;;;;;;;-4.21;100.00;101887.93;1690525;82;21010;-80
2022/12/07 02:23:34;;;;;;;15.05;3.98;;;;;;;-4.21;100.00;101887.09;1672898;84;21072;-80
2022/12/07 02:26:11;;;;;;;14.58;3.42;;;;;;;-4.20;100.00;101886.98;1615215;87;21150;-80
2022/12/07 02:28:58;;;;;;;13.68;3.90;;;;;;;-4.16;100.00;101885.74;1618970;87;21058;-80
2022/12/07 02:31:27;;;;;;;15.15;3.52;;;;;;;-4.18;100.00;101892.09;1620429;86;21131;-80
2022/12/07 02:34:04;;;;;;;16.27;3.60;;;;;;;-4.21;100.00;101897.14;1618862;87;21103;-80
2022/12/07 02:36:36;;;;;;;12.90;3.65;;;;;;;-4.28;100.00;101890.74;1592177;88;21638;-80
2022/12/07 02:39:10;;;;;;;14.78;4.47;;;;;;;-4.28;100.00;101885.48;1589663;89;21745;-78
2022/12/07 02:41:40;;;;;;;18.57;3.62;;;;;;;-4.23;100.00;101906.16;1580666;90;21141;-80
2022/12/07 02:44:12;;;;;;;14.10;4.97;;;;;;;-4.24;100.00;101897.89;1584304;90;21092;-80
2022/12/07 02:46:46;;;;;;;11.28;3.45;;;;;;;-4.26;100.00;101894.58;1532602;93;21130;-80
2022/12/07 02:49:13;;;;;;;18.00;3.80;;;;;;;-4.28;100.00;101903.07;1529523;93;21666;-80
2022/12/07 02:51:41;;;;;;;19.48;4.25;;;;;;;-4.32;100.00;101889.80;1536712;93;21146;-80
2022/12/07 02:54:15;;;;;;;13.98;3.95;;;;;;;-4.34;100.00;101891.27;1501541;94;21138;-80
2022/12/07 02:57:06;;;;;;;14.98;3.60;;;;;;;-4.37;100.00;101881.83;1518790;94;21132;-78
2022/12/07 02:59:58;;;;;;;18.40;4.12;;;;;;;-4.37;100.00;101882.32;1529234;91;21182;-80
2022/12/07 03:03:06;;;;;;;12.83;3.67;;;;;;;-4.36;100.00;101893.19;1555721;90;21088;-80
2022/12/07 03:05:55;;;;;;;15.63;3.67;;;;;;;-4.40;100.00;101895.73;1513027;94;21335;-80
2022/12/07 03:08:44;;;;;;;17.27;4.65;;;;;;;-4.41;100.00;101887.47;1536614;92;21165;-80
2022/12/07 03:11:18;;;;;;;15.85;3.95;;;;;;;-4.35;100.00;101888.30;1533360;92;21091;-80
2022/12/07 03:14:03;;;;;;;13.90;3.45;;;;;;;-4.39;100.00;101887.70;1547675;91;21669;-80
2022/12/07 03:16:37;;;;;;;15.28;3.85;;;;;;;-4.44;100.00;101882.02;1564016;90;21261;-80
2022/12/07 03:19:14;;;;;;;12.85;3.72;;;;;;;-4.48;100.00;101881.91;1482981;95;21205;-80
2022/12/07 03:21:48;;;;;;;20.90;4.22;;;;;;;-4.44;100.00;101885.10;1486798;95;21083;-79
2022/12/07 03:24:18;;;;;;;16.12;4.33;;;;;;;-4.39;100.00;101882.44;1547103;92;21831;-80
2022/12/07 03:26:48;;;;;;;20.77;4.35;;;;;;;-4.39;100.00;101884.23;1547283;92;21104;-80
2022/12/07 03:29:28;;;;;;;17.77;4.42;;;;;;;-4.44;100.00;101882.47;1458554;98;21081;-80
2022/12/07 03:32:14;;;;;;;17.45;4.10;;;;;;;-4.40;100.00;101883.90;1454240;98;21247;-80
2022/12/07 03:35:12;;;;;;;20.68;4.95;;;;;;;-4.46;100.00;101876.04;1456897;98;21113;-80
2022/12/07 03:37:55;;;;;;;19.02;4.50;;;;;;;-4.42;100.00;101876.61;1454859;97;21174;-80
2022/12/07 03:40:46;;;;;;;14.87;4.42;;;;;;;-4.45;100.00;101863.72;1479544;96;21090;-80
2022/12/07 03:43:12;;;;;;;20.02;5.35;;;;;;;-4.47;100.00;101869.58;1499062;93;21209;-80
2022/12/07 03:45:46;;;;;;;14.78;4.67;;;;;;;-4.45;100.00;101876.87;1514323;94;21999;-80
2022/12/07 03:48:24;;;;;;;17.50;4.28;;;;;;;-4.50;100.00;101864.13;1517870;93;22268;-78
2022/12/07 03:51:16;;;;;;;17.45;4.70;;;;;;;-4.52;100.00;101862.09;1513445;94;21524;-77
2022/12/07 03:53:54;;;;;;;19.60;4.60;;;;;;;-4.49;100.00;101853.11;1513467;94;21153;-80
2022/12/07 03:56:22;;;;;;;13.35;4.45;;;;;;;-4.49;100.00;101850.48;1460473;97;21106;-80
2022/12/07 03:58:49;;;;;;;17.25;4.47;;;;;;;-4.52;100.00;101850.26;1471457;97;21244;-78
2022/12/07 04:01:15;;;;;;;19.02;4.15;;;;;;;-4.44;100.00;101859.66;1471408;97;21654;-77
2022/12/07 04:03:43;;;;;;;14.33;4.42;;;;;;;-4.39;100.00;101864.51;1465298;96;21114;-80
2022/12/07 04:06:09;;;;;;;16.85;4.40;;;;;;;-4.48;100.00;101845.56;1421852;100;21103;-79
2022/12/07 04:08:35;;;;;;;16.80;4.85;;;;;;;-4.48;100.00;101841.13;1417222;100;20985;-80
2022/12/07 04:11:01;;;;;;;21.82;4.58;;;;;;;-4.50;100.00;101844.85;1424925;99;21222;-80
2022/12/07 04:13:27;;;;;;;23.55;5.60;;;;;;;-4.53;100.00;101851.20;1430597;98;21121;-80
2022/12/07 04:15:53;;;;;;;18.45;5.70;;;;;;;-4.51;100.00;101859.80;1448507;96;21065;-80
2022/12/07 04:18:19;;;;;;;19.42;5.25;;;;;;;-4.54;100.00;101853.98;1456335;97;21091;-80
2022/12/07 04:20:46;;;;;;;16.15;5.35;;;;;;;-4.51;100.00;101847.97;1457298;96;21811;-80
2022/12/07 04:23:12;;;;;;;17.20;4.70;;;;;;;-4.57;100.00;101845.86;1453502;96;21103;-80
2022/12/07 04:25:38;;;;;;;18.90;5.37;;;;;;;-4.57;100.00;101844.06;1498749;90;20913;-80
2022/12/07 04:28:04;;;;;;;16.45;4.72;;;;;;;-4.52;100.00;101856.00;1584382;88;21020;-80
2022/12/07 04:30:30;;;;;;;15.72;4.33;;;;;;;-4.53;100.00;101850.37;1590848;90;21039;-80
2022/12/07 04:32:56;;;;;;;35.05;5.75;;;;;;;-4.53;100.00;101839.37;1612256;84;21678;-80
2022/12/07 04:35:22;;;;;;;19.10;5.15;;;;;;;-4.59;100.00;101847.32;1700829;84;21073;-80
2022/12/07 04:37:47;;;;;;;21.40;5.22;;;;;;;-4.60;100.00;101846.95;1697083;84;20974;-80
2022/12/07 04:40:14;;;;;;;23.47;4.95;;;;;;;-4.60;100.00;101856.16;1697236;84;20991;-80
2022/12/07 04:42:40;;;;;;;18.52;5.62;;;;;;;-4.58;100.00;101853.41;1708625;79;21566;-80
2022/12/07 04:45:08;;;;;;;19.07;5.05;;;;;;;-4.55;100.00;101849.20;1777745;80;20996;-80
2022/12/07 04:47:34;;;;;;;19.92;5.22;;;;;;;-4.54;100.00;101843.45;1782361;78;21155;-80
2022/12/07 04:50:02;;;;;;;26.93;5.97;;;;;;;-4.61;100.00;101841.34;1768543;80;21734;-80
2022/12/07 04:52:27;;;;;;;20.92;5.25;;;;;;;-4.65;100.00;101846.50;1770804;80;21071;-80
2022/12/07 04:54:53;;;;;;;20.82;5.45;;;;;;;-4.67;100.00;101829.20;1774873;80;21006;-78
2022/12/07 04:57:19;;;;;;;21.27;5.33;;;;;;;-4.65;100.00;101829.89;1794784;80;20994;-77
2022/12/07 04:59:45;;;;;;;17.95;4.92;;;;;;;-4.62;100.00;101840.15;1779625;78;21143;-78
2022/12/07 05:02:11;;;;;;;18.30;5.30;;;;;;;-4.66;100.00;101849.27;1781091;78;21070;-78
2022/12/07 05:04:36;;;;;;;21.33;5.22;;;;;;;-4.72;100.00;101859.82;1782634;78;20963;-79
2022/12/07 05:07:02;;;;;;;22.55;5.87;;;;;;;-4.72;100.00;101844.05;1745394;80;21010;-77
2022/12/07 05:09:28;;;;;;;21.75;5.60;;;;;;;-4.74;100.00;101838.07;1771307;80;20873;-78
2022/12/07 05:11:54;;;;;;;34.75;7.20;;;;;;;-4.68;100.00;101834.92;1769559;80;21951;-77
2022/12/07 05:14:21;;;;;;;22.58;5.95;;;;;;;-4.79;100.00;101836.33;1769459;80;20880;-77
2022/12/07 05:16:50;;;;;;;24.15;6.65;;;;;;;-4.73;100.00;101838.93;1769831;80;21050;-78
2022/12/07 05:19:18;;;;;;;25.17;5.87;;;;;;;-4.72;100.00;101842.73;1776234;78;21019;-78
2022/12/07 05:21:44;;;;;;;36.95;7.08;;;;;;;-4.74;100.00;101834.13;1783710;80;20943;-80
2022/12/07 05:24:13;;;;;;;25.65;5.75;;;;;;;-4.73;100.00;101833.19;1779166;80;21553;-80
2022/12/07 05:26:39;;;;;;;18.87;5.42;;;;;;;-4.70;100.00;101821.58;1767868;80;21421;-80
2022/12/07 05:29:05;;;;;;;21.42;5.12;;;;;;;-4.69;100.00;101817.97;1768057;80;20974;-80
2022/12/07 05:31:32;;;;;;;20.08;5.65;;;;;;;-4.74;100.00;101818.34;1771047;80;21477;-80
2022/12/07 05:33:58;;;;;;;19.05;5.45;;;;;;;-4.70;100.00;101834.73;1772826;80;21416;-79
2022/12/07 05:36:24;;;;;;;22.73;5.75;;;;;;;-4.73;100.00;101836.30;1780305;79;21046;-80
2022/12/07 05:38:50;;;;;;;33.88;5.70;;;;;;;-4.69;100.00;101842.95;1789007;80;21033;-80
2022/12/07 05:44:03;;;;;;;24.70;5.58;;;;;;;-4.69;100.00;101846.41;1768273;81;21499;-80
2022/12/07 05:46:29;;;;;;;34.15;6.67;;;;;;;-4.75;100.00;101838.22;1767483;80;21199;-79
2022/12/07 05:48:54;;;;;;;25.08;5.42;;;;;;;-4.67;100.00;101837.92;1778760;80;21227;-77
2022/12/07 05:51:21;;;;;;;21.33;6.15;;;;;;;-4.66;100.00;101825.12;1769645;80;20991;-78
2022/12/07 05:53:47;;;;;;;26.57;6.83;;;;;;;-4.68;100.00;101826.20;1768920;80;21040;-80
2022/12/07 05:56:14;;;;;;;22.85;5.80;;;;;;;-4.71;100.00;101827.30;1768693;80;21024;-80
2022/12/07 06:01:24;;;;;;;21.12;5.53;;;;;;;-4.64;100.00;101827.14;1769352;81;21541;-80
2022/12/07 06:03:50;;;;;;;23.38;5.90;;;;;;;-4.55;100.00;101832.11;1741768;80;21022;-80
2022/12/07 06:06:16;;;;;;;25.12;5.67;;;;;;;-4.57;100.00;101831.39;1773521;80;20968;-80
2022/12/07 06:08:42;;;;;;;18.23;5.65;;;;;;;-4.60;100.00;101828.54;1769486;80;21480;-80
2022/12/07 06:13:52;;;;;;;31.55;8.20;;;;;;;-4.66;100.00;101845.33;1779474;80;21050;-80
2022/12/07 06:16:19;;;;;;;22.98;6.17;;;;;;;-4.63;100.00;101844.58;1776736;80;21666;-80
2022/12/07 06:18:45;;;;;;;24.12;6.58;;;;;;;-4.65;100.00;101838.61;1769457;80;21051;-80
2022/12/07 06:21:11;;;;;;;23.87;5.62;;;;;;;-4.64;100.00;101831.09;1785600;80;21432;-80
2022/12/07 06:23:37;;;;;;;29.42;6.00;;;;;;;-4.64;100.00;101836.35;1774919;78;21550;-80
2022/12/07 06:26:03;;;;;;;19.70;4.90;;;;;;;-4.58;100.00;101840.27;1782283;78;21079;-80
2022/12/07 06:28:29;;;;;;;25.15;5.78;;;;;;;-4.59;100.00;101848.64;1769269;80;20993;-80
2022/12/07 06:31:01;;;;;;;19.45;5.83;;;;;;;-4.59;100.00;101846.00;1770978;80;21059;-80
2022/12/07 06:33:28;;;;;;;19.82;5.28;;;;;;;-4.57;100.00;101851.13;1738156;81;21114;-80
2022/12/07 06:35:54;;;;;;;20.50;5.72;;;;;;;-4.52;100.00;101853.38;1738309;82;21110;-80
2022/12/07 06:38:20;;;;;;;21.27;5.83;;;;;;;-4.58;100.00;101850.30;1738553;82;21151;-78
2022/12/07 06:40:46;;;;;;;19.87;5.60;;;;;;;-4.59;100.00;101856.53;1737565;81;21657;-78
2022/12/07 06:43:12;;;;;;;21.20;5.37;;;;;;;-4.57;100.00;101862.95;1738739;82;21110;-79
2022/12/07 06:45:38;;;;;;;31.85;6.40;;;;;;;-4.56;100.00;101860.67;1738440;80;21118;-80
2022/12/07 06:48:05;;;;;;;17.00;5.67;;;;;;;-4.51;100.00;101865.06;1740223;81;20952;-78
2022/12/07 06:50:31;;;;;;;22.13;5.40;;;;;;;-4.54;100.00;101852.17;1737752;81;21321;-78
2022/12/07 06:52:57;;;;;;;18.30;5.87;;;;;;;-4.53;100.00;101857.78;1743619;81;21025;-78
2022/12/07 06:55:23;;;;;;;33.58;6.22;;;;;;;-4.50;100.00;101852.28;1757106;80;20923;-78
2022/12/07 06:57:49;;;;;;;21.30;5.55;;;;;;;-4.47;100.00;101852.48;1747557;81;21618;-78
2022/12/07 07:00:16;;;;;;;25.15;5.97;;;;;;;-4.46;100.00;101843.16;1760765;80;21743;-78
2022/12/07 07:02:42;;;;;;;18.60;5.55;;;;;;;-4.40;100.00;101852.33;1736509;81;21844;-78
2022/12/07 07:05:09;;;;;;;25.95;5.65;;;;;;;-4.31;100.00;101858.61;1742154;80;21707;-78
2022/12/07 07:07:35;;;;;;;33.98;7.37;;;;;;;-4.32;100.00;101862.18;1737941;81;21015;-77
2022/12/07 07:10:01;;;;;;;23.57;5.70;;;;;;;-4.28;100.00;101855.22;1738584;82;21098;-78
2022/12/07 07:12:27;;;;;;;21.87;6.25;;;;;;;-4.26;100.00;101851.16;1737716;81;20907;-78
2022/12/07 07:14:53;;;;;;;52.83;14.00;;;;;;;-4.31;100.00;101854.17;1749724;80;21101;-77
2022/12/07 07:17:19;;;;;;;23.62;4.95;;;;;;;-4.31;100.00;101844.96;1746438;81;20996;-78
2022/12/07 07:19:45;;;;;;;18.67;5.37;;;;;;;-4.29;100.00;101846.13;1745235;80;21030;-78
2022/12/07 07:22:11;;;;;;;22.73;5.70;;;;;;;-4.23;100.00;101839.05;1748887;81;21035;-78
2022/12/07 07:24:37;;;;;;;18.30;5.67;;;;;;;-4.21;100.00;101844.50;1710871;81;21482;-78
2022/12/07 07:27:04;;;;;;;23.18;5.17;;;;;;;-4.24;100.00;101841.31;1742259;81;21106;-78
2022/12/07 07:29:30;;;;;;;19.45;5.42;;;;;;;-4.17;100.00;101844.61;1744077;80;20992;-78
2022/12/07 07:31:56;;;;;;;20.35;5.60;;;;;;;-4.13;100.00;101851.27;1772491;80;20845;-78
2022/12/07 07:34:22;;;;;;;20.80;5.50;;;;;;;-4.06;100.00;101844.16;1782949;80;21089;-78
2022/12/07 07:36:48;;;;;;;19.27;5.47;;;;;;;-4.11;100.00;101849.83;1778367;78;21518;-80
2022/12/07 07:39:14;;;;;;;22.87;6.08;;;;;;;-4.07;100.00;101846.44;1770795;80;21493;-80
2022/12/07 07:41:40;;;;;;;19.55;5.60;;;;;;;-4.06;100.00;101859.94;1773522;80;21672;-80
2022/12/07 07:44:06;;;;;;;24.15;5.75;;;;;;;-4.12;100.00;101849.00;1774071;78;20912;-80
2022/12/07 07:46:33;;;;;;;25.00;5.92;;;;;;;-4.14;100.00;101837.77;1769768;81;20940;-80
2022/12/07 07:48:59;;;;;;;16.77;5.47;;;;;;;-4.13;100.00;101844.69;1783530;78;20952;-80
2022/12/07 07:51:25;;;;;;;19.15;5.15;;;;;;;-4.11;100.00;101828.77;1782015;80;21165;-80
2022/12/07 07:53:51;;;;;;;16.40;5.42;;;;;;;-4.02;100.00;101838.50;1769882;80;21129;-80
2022/12/07 07:56:17;;;;;;;19.50;5.78;;;;;;;-4.07;100.00;101824.90;1775382;80;21083;-80
2022/12/07 07:58:43;;;;;;;17.07;5.20;;;;;;;-4.02;100.00;101833.23;1769124;80;20920;-80
2022/12/07 08:01:09;;;;;;;21.40;5.50;;;;;;;-3.97;100.00;101831.04;1774318;80;20992;-80
2022/12/07 08:03:36;;;;;;;26.25;6.25;;;;;;;-4.00;100.00;101826.50;1768911;80;21532;-77
2022/12/07 08:06:04;;;;;;;16.57;4.97;;;;;;;-3.93;100.00;101828.97;1752124;80;21027;-77
2022/12/07 08:08:30;;;;;;;18.65;4.65;;;;;;;-3.91;100.00;101818.66;1772750;80;21556;-78
2022/12/07 08:10:56;;;;;;;24.12;5.33;;;;;;;-3.96;100.00;101824.80;1769042;80;20991;-77
2022/12/07 08:13:22;;;;;;;14.05;4.92;;;;;;;-3.88;100.00;101821.51;1771598;80;21026;-78
2022/12/07 08:15:49;;;;;;;27.67;5.60;;;;;;;-3.80;100.00;101823.45;1788525;78;21799;-77
2022/12/07 08:18:15;;;;;;;21.27;5.47;;;;;;;-3.79;100.00;101823.81;1769559;80;21098;-78
2022/12/07 08:20:42;;;;;;;20.65;5.60;;;;;;;-3.80;100.00;101819.50;1769691;80;20992;-78
2022/12/07 08:23:10;;;;;;;20.00;5.83;;;;;;;-3.72;100.00;101824.44;1768883;80;21002;-77
2022/12/07 08:25:37;;;;;;;18.87;5.62;;;;;;;-3.76;100.00;101804.62;1765001;80;21040;-77
2022/12/07 08:28:03;;;;;;;19.52;5.10;;;;;;;-3.74;100.00;101800.02;1783031;78;21495;-78
2022/12/07 08:30:30;;;;;;;20.70;5.55;;;;;;;-3.68;100.00;101799.51;1770031;80;21029;-78
2022/12/07 08:32:57;;;;;;;21.20;5.30;;;;;;;-3.64;100.00;101789.52;1778276;78;20967;-78
2022/12/07 08:35:23;;;;;;;15.45;4.80;;;;;;;-3.56;100.00;101787.04;1773926;80;20999;-78
2022/12/07 08:37:49;;;;;;;21.95;4.92;;;;;;;-3.40;100.00;101779.89;1776629;78;21163;-77
2022/12/07 08:40:18;;;;;;;16.07;5.60;;;;;;;-3.35;100.00;101785.59;1777059;80;21929;-78
2022/12/07 08:42:44;;;;;;;20.20;6.00;;;;;;;-3.41;100.00;101786.14;1769321;80;20973;-78
2022/12/07 08:45:16;;;;;;;23.83;6.62;;;;;;;-3.43;100.00;101783.63;1769812;81;21004;-77
2022/12/07 08:47:50;;;;;;;16.05;5.08;;;;;;;-3.39;100.00;101785.50;1776932;80;20968;-80
2022/12/07 08:50:17;;;;;;;21.68;5.75;;;;;;;-3.37;100.00;101776.98;1726410;81;21171;-80
2022/12/07 08:52:44;;;;;;;17.77;5.35;;;;;;;-3.24;100.00;101776.69;1700705;83;21579;-80
2022/12/07 08:55:12;;;;;;;16.30;4.95;;;;;;;-3.27;100.00;101784.38;1719134;81;20975;-80
2022/12/07 08:57:39;;;;;;;15.15;5.35;;;;;;;-3.28;100.00;101779.27;1727498;81;21565;-80
2022/12/07 09:00:07;;;;;;;21.23;5.72;;;;;;;-3.38;100.00;101779.73;1722635;81;21015;-80
2022/12/07 09:02:34;;;;;;;17.07;5.22;;;;;;;-3.38;100.00;101777.10;1727238;81;21027;-80
2022/12/07 09:05:00;;;;;;;14.03;5.03;;;;;;;-3.39;100.00;101771.00;1728012;82;21212;-78
2022/12/07 09:07:27;;;;;;;14.15;5.33;;;;;;;-3.36;100.00;101769.90;1717359;81;21059;-77
2022/12/07 09:09:53;;;;;;;18.65;5.12;;;;;;;-3.32;100.00;101762.08;1726558;83;21554;-78
2022/12/07 09:12:21;;;;;;;17.10;5.12;;;;;;;-3.27;100.00;101769.88;1726839;83;21077;-78
2022/12/07 09:14:47;;;;;;;13.48;5.08;;;;;;;-3.23;100.00;101762.55;1687819;83;21036;-77
2022/12/07 09:17:13;;;;;;;27.07;5.20;;;;;;;-3.11;100.00;101755.32;1682241;83;21937;-78
2022/12/07 09:19:42;;;;;;;17.32;4.95;;;;;;;-3.09;100.00;101737.08;1673787;83;21032;-77
2022/12/07 09:22:08;;;;;;;16.05;4.97;;;;;;;-3.05;100.00;101735.80;1680306;83;21079;-78
2022/12/07 09:24:34;;;;;;;28.07;5.03;;;;;;;-2.93;100.00;101736.47;1684056;83;21066;-77
2022/12/07 09:27:01;;;;;;;15.05;4.78;;;;;;;-2.83;100.00;101739.90;1683832;83;21076;-78
2022/12/07 09:29:27;;;;;;;20.75;5.10;;;;;;;-2.92;100.00;101741.25;1682013;84;21096;-78
2022/12/07 09:31:53;;;;;;;16.42;4.67;;;;;;;-3.00;100.00;101736.68;1683574;83;21240;-78
2022/12/07 09:34:19;;;;;;;16.48;5.12;;;;;;;-3.04;100.00;101737.95;1671950;83;21031;-77
2022/12/07 09:36:46;;;;;;;23.18;5.87;;;;;;;-2.94;100.00;101740.09;1666195;85;21076;-77
2022/12/07 09:39:12;;;;;;;14.73;5.15;;;;;;;-2.92;100.00;101736.80;1676575;83;21110;-80
2022/12/07 09:41:42;;;;;;;13.70;4.17;;;;;;;-2.86;100.00;101733.59;1691943;83;21138;-79
2022/12/07 09:44:13;;;;;;;19.17;5.80;;;;;;;-2.77;100.00;101733.22;1684830;83;21043;-80
2022/12/07 09:46:43;;;;;;;14.43;5.28;;;;;;;-2.76;100.00;101715.94;1673892;84;21063;-77
2022/12/07 09:49:19;;;;;;;19.42;5.08;;;;;;;-2.76;100.00;101720.39;1686512;84;21098;-78
2022/12/07 09:51:46;;;;;;;14.50;4.67;;;;;;;-2.66;100.00;101714.58;1601399;89;21729;-78
2022/12/07 09:54:17;;;;;;;14.83;4.83;;;;;;;-2.63;100.00;101720.88;1601997;88;21136;-78
2022/12/07 09:56:44;;;;;;;19.05;5.03;;;;;;;-2.64;100.00;101716.59;1601983;88;21636;-78
2022/12/07 09:59:18;;;;;;;14.15;4.90;;;;;;;-2.57;100.00;101720.79;1602525;88;21623;-78
2022/12/07 10:01:48;;;;;;;19.15;5.97;;;;;;;-2.55;100.00;101715.71;1601591;89;21603;-78
2022/12/07 10:04:21;;;;;;;15.28;4.72;;;;;;;-2.46;100.00;101725.05;1581048;89;21115;-78
2022/12/07 10:06:48;;;;;;;;;;;;;;;-2.32;100.00;101720.61;1583459;90;21118;-78
2022/12/07 10:09:17;;;;;;;17.12;4.75;;;;;;;-2.33;100.00;101725.53;1584813;89;20465;-78
2022/12/07 10:12:06;;;;;;;21.40;4.72;;;;;;;-2.33;100.00;101719.75;1584988;89;21246;-77
2022/12/07 10:14:36;;;;;;;13.78;4.35;;;;;;;-2.36;100.00;101709.49;1508515;93;21129;-80
2022/12/07 10:17:02;;;;;;;18.42;4.72;;;;;;;-2.34;100.00;101712.83;1527769;93;21040;-80
2022/12/07 10:19:33;;;;;;;14.75;4.85;;;;;;;-2.29;100.00;101704.48;1525645;93;21109;-77
2022/12/07 10:22:07;;;;;;;15.70;4.60;;;;;;;-2.38;100.00;101695.63;1568538;90;21251;-77
2022/12/07 10:24:33;;;;;;;17.82;4.55;;;;;;;-2.36;100.00;101697.61;1521053;93;21098;-77
2022/12/07 10:26:59;;;;;;;17.00;4.25;;;;;;;-2.39;100.00;101695.27;1527809;93;20935;-77
2022/12/07 10:29:36;;;;;;;17.05;4.85;;;;;;;-2.34;100.00;101689.06;1528815;92;21224;-77
2022/12/07 10:32:16;;;;;;;17.35;4.58;;;;;;;-2.34;100.00;101689.06;1525906;93;21563;-77
2022/12/07 10:34:43;;;;;;;12.47;4.37;;;;;;;-2.30;100.00;101690.42;1529213;93;21602;-78
2022/12/07 10:37:19;;;;;;;13.50;4.42;;;;;;;-2.18;100.00;101677.84;1526270;92;21117;-77
2022/12/07 10:39:52;;;;;;;13.70;4.83;;;;;;;-2.06;100.00;101678.45;1520844;93;21125;-77
2022/12/07 10:42:27;;;;;;;13.35;4.50;;;;;;;-1.95;100.00;101677.41;1513828;93;21072;-77
2022/12/07 10:45:17;;;;;;;13.15;4.20;;;;;;;-1.86;100.00;101679.97;1475891;95;21186;-77
2022/12/07 10:48:16;;;;;;;14.20;5.05;;;;;;;-1.90;100.00;101682.59;1479674;95;21559;-78
2022/12/07 10:50:56;;;;;;;18.67;4.90;;;;;;;-1.92;100.00;101672.66;1566263;89;21596;-77
2022/12/07 10:53:46;;;;;;;15.58;4.58;;;;;;;-2.02;100.00;101671.08;1596846;89;21035;-77
2022/12/07 10:56:20;;;;;;;15.75;4.83;;;;;;;-2.11;100.00;101670.17;1597457;89;21554;-78
2022/12/07 10:59:04;;;;;;;20.62;5.03;;;;;;;-2.19;100.00;101664.31;1574129;91;21218;-78
2022/12/07 11:01:53;;;;;;;28.85;5.22;;;;;;;-2.18;100.00;101666.45;1617182;86;21090;-78
2022/12/07 11:04:40;;;;;;;18.65;5.28;;;;;;;-2.20;100.00;101665.80;1575812;89;21229;-78
2022/12/07 11:07:29;;;;;;;16.42;5.15;;;;;;;-2.37;100.00;101659.01;1551725;92;21031;-78
2022/12/07 11:10:09;;;;;;;16.27;4.78;;;;;;;-2.39;100.00;101665.41;1547102;90;21123;-78
2022/12/07 11:12:46;;;;;;;16.55;5.22;;;;;;;-2.48;100.00;101662.34;1546260;90;21148;-78
2022/12/07 11:15:33;;;;;;;16.02;4.90;;;;;;;-2.41;100.00;101664.26;1541643;90;21613;-78
2022/12/07 11:18:25;;;;;;;18.80;5.03;;;;;;;-2.49;100.00;101656.73;1532316;91;21147;-78
2022/12/07 11:21:25;;;;;;;13.25;4.78;;;;;;;-2.47;100.00;101658.25;1538767;91;21106;-78
2022/12/07 11:23:57;;;;;;;14.58;5.08;;;;;;;-2.38;100.00;101665.28;1534177;91;21201;-78
2022/12/07 11:26:45;;;;;;;17.98;5.35;;;;;;;-2.33;100.00;101659.04;1528559;90;21178;-78
2022/12/07 11:29:29;;;;;;;18.52;5.55;;;;;;;-2.25;100.00;101653.52;1532247;91;21210;-78
2022/12/07 11:32:49;;;;;;;13.80;4.55;;;;;;;-2.22;100.00;101658.01;1541525;91;21055;-78